sensor_id;sensor_type;location;lat;lon;timestamp;P1;durP1;ratioP1;P2;durP2;ratioP2
50906;SDS011;36882;27.680;85.304;2023-06-19T03:07:48;40.08;;;31.05;;
50906;SDS011;36882;27.680;85.304;2023-06-19T03:10:17;47.83;;;32.08;;
50906;SDS011;36882;27.680;85.304;2023-06-19T03:12:48;49.17;;;33.47;;
50906;SDS011;36882;27.680;85.304;2023-06-19T03:15:17;42.38;;;31.20;;
50906;SDS011;36882;27.680;85.304;2023-06-19T03:17:47;51.72;;;33.63;;
50906;SDS011;36882;27.680;85.304;2023-06-19T03:20:17;50.65;;;33.60;;
50906;SDS011;36882;27.680;85.304;2023-06-19T03:22:47;50.53;;;33.53;;
50906;SDS011;36882;27.680;85.304;2023-06-19T03:25:17;42.80;;;30.80;;
50906;SDS011;36882;27.680;85.304;2023-06-19T03:27:48;40.92;;;33.78;;
50906;SDS011;36882;27.680;85.304;2023-06-19T03:30:17;41.50;;;32.20;;
50906;SDS011;36882;27.680;85.304;2023-06-19T03:32:48;44.90;;;33.92;;
50906;SDS011;36882;27.680;85.304;2023-06-19T03:35:21;43.20;;;31.15;;
50906;SDS011;36882;27.680;85.304;2023-06-19T03:37:51;50.42;;;32.30;;
50906;SDS011;36882;27.680;85.304;2023-06-19T03:40:24;46.67;;;29.83;;
50906;SDS011;36882;27.680;85.304;2023-06-19T03:42:57;45.83;;;34.08;;
50906;SDS011;36882;27.680;85.304;2023-06-19T03:45:27;44.05;;;32.78;;
50906;SDS011;36882;27.680;85.304;2023-06-19T03:47:57;47.72;;;32.20;;
50906;SDS011;36882;27.680;85.304;2023-06-19T03:50:27;51.05;;;30.95;;
50906;SDS011;36882;27.680;85.304;2023-06-19T03:52:57;48.90;;;33.58;;
50906;SDS011;36882;27.680;85.304;2023-06-19T03:55:27;49.25;;;28.40;;
50906;SDS011;36882;27.680;85.304;2023-06-19T03:58:00;46.20;;;28.63;;
50906;SDS011;36882;27.680;85.304;2023-06-19T04:00:30;38.22;;;27.60;;
50906;SDS011;36882;27.680;85.304;2023-06-19T04:02:59;47.30;;;29.27;;
50906;SDS011;36882;27.680;85.304;2023-06-19T04:05:29;62.15;;;28.92;;
50906;SDS011;36882;27.680;85.304;2023-06-19T04:07:59;45.75;;;31.45;;
50906;SDS011;36882;27.680;85.304;2023-06-19T04:10:29;49.78;;;30.58;;
50906;SDS011;36882;27.680;85.304;2023-06-19T04:13:01;49.75;;;31.05;;
50906;SDS011;36882;27.680;85.304;2023-06-19T04:15:31;55.60;;;29.83;;
50906;SDS011;36882;27.680;85.304;2023-06-19T04:18:01;49.80;;;25.42;;
50906;SDS011;36882;27.680;85.304;2023-06-19T04:20:31;37.63;;;24.08;;
50906;SDS011;36882;27.680;85.304;2023-06-19T04:23:03;44.17;;;26.10;;
50906;SDS011;36882;27.680;85.304;2023-06-19T04:25:34;37.70;;;24.33;;
50906;SDS011;36882;27.680;85.304;2023-06-19T04:28:04;40.38;;;23.50;;
50906;SDS011;36882;27.680;85.304;2023-06-19T04:30:34;48.92;;;23.85;;
50906;SDS011;36882;27.680;85.304;2023-06-19T04:33:04;48.70;;;22.17;;
50906;SDS011;36882;27.680;85.304;2023-06-19T04:35:35;36.78;;;18.38;;
50906;SDS011;36882;27.680;85.304;2023-06-19T04:38:13;36.28;;;18.40;;
50906;SDS011;36882;27.680;85.304;2023-06-19T04:40:43;33.10;;;18.88;;
50906;SDS011;36882;27.680;85.304;2023-06-19T04:43:13;38.75;;;18.30;;
50906;SDS011;36882;27.680;85.304;2023-06-19T04:45:43;43.05;;;20.55;;
50906;SDS011;36882;27.680;85.304;2023-06-19T04:48:12;45.30;;;21.95;;
50906;SDS011;36882;27.680;85.304;2023-06-19T04:50:42;45.20;;;20.52;;
50906;SDS011;36882;27.680;85.304;2023-06-19T04:53:12;47.42;;;21.13;;
50906;SDS011;36882;27.680;85.304;2023-06-19T04:55:43;36.90;;;21.13;;
50906;SDS011;36882;27.680;85.304;2023-06-19T04:58:13;37.40;;;21.02;;
50906;SDS011;36882;27.680;85.304;2023-06-19T05:00:43;39.40;;;21.35;;
50906;SDS011;36882;27.680;85.304;2023-06-19T05:03:12;38.30;;;22.08;;
50906;SDS011;36882;27.680;85.304;2023-06-19T05:05:42;43.72;;;21.25;;
50906;SDS011;36882;27.680;85.304;2023-06-19T05:08:12;38.78;;;20.63;;
50906;SDS011;36882;27.680;85.304;2023-06-19T05:10:42;44.00;;;21.38;;
50906;SDS011;36882;27.680;85.304;2023-06-19T05:13:12;32.40;;;19.40;;
50906;SDS011;36882;27.680;85.304;2023-06-19T05:15:42;38.08;;;18.50;;
50906;SDS011;36882;27.680;85.304;2023-06-19T05:18:11;39.00;;;18.83;;
50906;SDS011;36882;27.680;85.304;2023-06-19T05:20:43;44.38;;;20.42;;
50906;SDS011;36882;27.680;85.304;2023-06-19T05:23:13;37.85;;;18.95;;
50906;SDS011;36882;27.680;85.304;2023-06-19T05:25:42;33.47;;;17.08;;
50906;SDS011;36882;27.680;85.304;2023-06-19T05:28:12;38.05;;;18.23;;
50906;SDS011;36882;27.680;85.304;2023-06-19T05:30:43;37.20;;;18.90;;
50906;SDS011;36882;27.680;85.304;2023-06-19T05:33:13;39.53;;;17.95;;
50906;SDS011;36882;27.680;85.304;2023-06-19T05:35:44;34.72;;;17.00;;
50906;SDS011;36882;27.680;85.304;2023-06-19T05:38:20;36.88;;;18.35;;
50906;SDS011;36882;27.680;85.304;2023-06-19T05:40:51;25.88;;;15.15;;
50906;SDS011;36882;27.680;85.304;2023-06-19T05:43:21;33.50;;;17.50;;
50906;SDS011;36882;27.680;85.304;2023-06-19T05:45:54;30.17;;;15.65;;
50906;SDS011;36882;27.680;85.304;2023-06-19T05:48:31;32.83;;;17.05;;
50906;SDS011;36882;27.680;85.304;2023-06-19T05:51:02;39.13;;;18.40;;
50906;SDS011;36882;27.680;85.304;2023-06-19T05:53:31;38.50;;;18.50;;
50906;SDS011;36882;27.680;85.304;2023-06-19T05:56:01;36.38;;;16.70;;
50906;SDS011;36882;27.680;85.304;2023-06-19T05:58:31;31.55;;;15.68;;
50906;SDS011;36882;27.680;85.304;2023-06-19T06:01:01;26.15;;;14.65;;
50906;SDS011;36882;27.680;85.304;2023-06-19T06:03:31;39.03;;;16.75;;
50906;SDS011;36882;27.680;85.304;2023-06-19T06:06:01;30.52;;;16.38;;
50906;SDS011;36882;27.680;85.304;2023-06-19T06:08:31;29.90;;;15.60;;
50906;SDS011;36882;27.680;85.304;2023-06-19T06:11:01;26.38;;;14.70;;
50906;SDS011;36882;27.680;85.304;2023-06-19T06:13:31;27.02;;;13.20;;
50906;SDS011;36882;27.680;85.304;2023-06-19T06:16:00;36.92;;;13.80;;
50906;SDS011;36882;27.680;85.304;2023-06-19T06:18:30;34.47;;;14.27;;
50906;SDS011;36882;27.680;85.304;2023-06-19T06:21:00;25.98;;;14.90;;
50906;SDS011;36882;27.680;85.304;2023-06-19T06:23:30;29.38;;;14.32;;
50906;SDS011;36882;27.680;85.304;2023-06-19T06:26:00;31.33;;;14.05;;
50906;SDS011;36882;27.680;85.304;2023-06-19T06:28:30;25.90;;;14.52;;
50906;SDS011;36882;27.680;85.304;2023-06-19T06:31:00;29.73;;;14.88;;
50906;SDS011;36882;27.680;85.304;2023-06-19T06:33:30;30.33;;;13.57;;
50906;SDS011;36882;27.680;85.304;2023-06-19T06:36:01;33.13;;;15.10;;
50906;SDS011;36882;27.680;85.304;2023-06-19T06:38:34;34.55;;;14.35;;
50906;SDS011;36882;27.680;85.304;2023-06-19T06:41:03;25.10;;;13.40;;
50906;SDS011;36882;27.680;85.304;2023-06-19T06:43:34;28.50;;;12.73;;
50906;SDS011;36882;27.680;85.304;2023-06-19T06:46:04;30.25;;;13.73;;
50906;SDS011;36882;27.680;85.304;2023-06-19T06:48:34;29.63;;;15.18;;
50906;SDS011;36882;27.680;85.304;2023-06-19T06:51:04;30.38;;;13.45;;
50906;SDS011;36882;27.680;85.304;2023-06-19T06:53:33;37.88;;;15.95;;
50906;SDS011;36882;27.680;85.304;2023-06-19T06:56:03;33.25;;;13.43;;
50906;SDS011;36882;27.680;85.304;2023-06-19T06:58:34;30.17;;;13.90;;
50906;SDS011;36882;27.680;85.304;2023-06-19T07:01:04;27.30;;;14.07;;
50906;SDS011;36882;27.680;85.304;2023-06-19T07:03:34;26.30;;;12.65;;
50906;SDS011;36882;27.680;85.304;2023-06-19T07:06:05;35.67;;;14.75;;
50906;SDS011;36882;27.680;85.304;2023-06-19T07:08:35;22.95;;;12.45;;
50906;SDS011;36882;27.680;85.304;2023-06-19T07:11:05;31.17;;;16.27;;
50906;SDS011;36882;27.680;85.304;2023-06-19T07:13:36;25.50;;;13.93;;
50906;SDS011;36882;27.680;85.304;2023-06-19T07:16:08;24.95;;;13.82;;
50906;SDS011;36882;27.680;85.304;2023-06-19T07:18:38;29.33;;;14.38;;
50906;SDS011;36882;27.680;85.304;2023-06-19T07:21:11;28.77;;;12.13;;
50906;SDS011;36882;27.680;85.304;2023-06-19T07:23:42;33.13;;;14.98;;
50906;SDS011;36882;27.680;85.304;2023-06-19T07:26:12;25.58;;;13.68;;
50906;SDS011;36882;27.680;85.304;2023-06-19T07:28:42;24.65;;;12.60;;
50906;SDS011;36882;27.680;85.304;2023-06-19T07:31:12;32.42;;;14.07;;
50906;SDS011;36882;27.680;85.304;2023-06-19T07:33:42;30.80;;;14.48;;
50906;SDS011;36882;27.680;85.304;2023-06-19T07:36:12;33.22;;;14.52;;
50906;SDS011;36882;27.680;85.304;2023-06-19T07:38:43;35.92;;;14.48;;
50906;SDS011;36882;27.680;85.304;2023-06-19T07:41:13;26.13;;;14.70;;
50906;SDS011;36882;27.680;85.304;2023-06-19T07:43:43;28.17;;;15.18;;
50906;SDS011;36882;27.680;85.304;2023-06-19T07:46:13;37.22;;;15.80;;
50906;SDS011;36882;27.680;85.304;2023-06-19T07:48:43;26.63;;;14.65;;
50906;SDS011;36882;27.680;85.304;2023-06-19T07:51:13;30.58;;;15.35;;
50906;SDS011;36882;27.680;85.304;2023-06-19T07:53:43;49.83;;;16.88;;
50906;SDS011;36882;27.680;85.304;2023-06-19T07:56:13;26.08;;;12.57;;
50906;SDS011;36882;27.680;85.304;2023-06-19T07:58:43;20.05;;;12.82;;
50906;SDS011;36882;27.680;85.304;2023-06-19T08:01:13;34.00;;;14.50;;
50906;SDS011;36882;27.680;85.304;2023-06-19T08:03:43;32.33;;;13.00;;
50906;SDS011;36882;27.680;85.304;2023-06-19T08:06:13;27.60;;;13.43;;
50906;SDS011;36882;27.680;85.304;2023-06-19T08:08:43;30.60;;;14.68;;
50906;SDS011;36882;27.680;85.304;2023-06-19T08:11:12;29.13;;;13.60;;
50906;SDS011;36882;27.680;85.304;2023-06-19T08:13:42;32.38;;;14.13;;
50906;SDS011;36882;27.680;85.304;2023-06-19T08:16:14;37.92;;;14.38;;
50906;SDS011;36882;27.680;85.304;2023-06-19T08:18:46;31.52;;;16.38;;
50906;SDS011;36882;27.680;85.304;2023-06-19T08:21:16;32.65;;;15.60;;
50906;SDS011;36882;27.680;85.304;2023-06-19T08:23:46;43.80;;;16.98;;
50906;SDS011;36882;27.680;85.304;2023-06-19T08:26:16;26.33;;;15.35;;
50906;SDS011;36882;27.680;85.304;2023-06-19T08:28:46;27.58;;;14.10;;
50906;SDS011;36882;27.680;85.304;2023-06-19T08:31:16;28.25;;;13.73;;
50906;SDS011;36882;27.680;85.304;2023-06-19T08:33:47;33.25;;;16.48;;
50906;SDS011;36882;27.680;85.304;2023-06-19T08:36:20;37.10;;;15.85;;
50906;SDS011;36882;27.680;85.304;2023-06-19T08:38:53;28.77;;;14.23;;
50906;SDS011;36882;27.680;85.304;2023-06-19T08:41:24;25.48;;;14.27;;
50906;SDS011;36882;27.680;85.304;2023-06-19T08:43:54;29.38;;;14.77;;
50906;SDS011;36882;27.680;85.304;2023-06-19T08:46:24;29.30;;;13.18;;
50906;SDS011;36882;27.680;85.304;2023-06-19T08:48:54;30.92;;;15.63;;
50906;SDS011;36882;27.680;85.304;2023-06-19T08:51:26;30.20;;;14.10;;
50906;SDS011;36882;27.680;85.304;2023-06-19T08:54:00;32.10;;;15.35;;
50906;SDS011;36882;27.680;85.304;2023-06-19T08:56:32;31.45;;;13.45;;
50906;SDS011;36882;27.680;85.304;2023-06-19T08:59:15;33.22;;;14.45;;
50906;SDS011;36882;27.680;85.304;2023-06-19T09:01:47;28.95;;;14.32;;
50906;SDS011;36882;27.680;85.304;2023-06-19T09:04:26;28.70;;;14.52;;
50906;SDS011;36882;27.680;85.304;2023-06-19T09:06:58;30.20;;;14.13;;
50906;SDS011;36882;27.680;85.304;2023-06-19T09:09:30;30.63;;;14.57;;
50906;SDS011;36882;27.680;85.304;2023-06-19T09:12:03;26.98;;;15.98;;
50906;SDS011;36882;27.680;85.304;2023-06-19T09:14:34;34.15;;;14.63;;
50906;SDS011;36882;27.680;85.304;2023-06-19T09:17:04;25.92;;;14.30;;
50906;SDS011;36882;27.680;85.304;2023-06-19T09:19:37;30.45;;;14.23;;
50906;SDS011;36882;27.680;85.304;2023-06-19T09:22:09;25.63;;;13.18;;
50906;SDS011;36882;27.680;85.304;2023-06-19T09:24:40;35.17;;;15.52;;
50906;SDS011;36882;27.680;85.304;2023-06-19T09:27:12;30.25;;;14.63;;
50906;SDS011;36882;27.680;85.304;2023-06-19T09:29:45;34.53;;;14.23;;
50906;SDS011;36882;27.680;85.304;2023-06-19T09:32:22;29.50;;;14.20;;
50906;SDS011;36882;27.680;85.304;2023-06-19T09:34:55;32.22;;;14.77;;
50906;SDS011;36882;27.680;85.304;2023-06-19T09:37:27;29.98;;;14.32;;
50906;SDS011;36882;27.680;85.304;2023-06-19T09:40:00;27.98;;;13.75;;
50906;SDS011;36882;27.680;85.304;2023-06-19T09:42:43;30.00;;;13.38;;
50906;SDS011;36882;27.680;85.304;2023-06-19T09:45:15;25.17;;;13.02;;
50906;SDS011;36882;27.680;85.304;2023-06-19T09:47:47;28.58;;;14.80;;
50906;SDS011;36882;27.680;85.304;2023-06-19T09:50:18;24.63;;;13.25;;
50906;SDS011;36882;27.680;85.304;2023-06-19T09:52:51;36.08;;;14.88;;
50906;SDS011;36882;27.680;85.304;2023-06-19T09:55:20;21.73;;;13.63;;
50906;SDS011;36882;27.680;85.304;2023-06-19T09:57:52;38.90;;;14.45;;
50906;SDS011;36882;27.680;85.304;2023-06-19T10:00:22;24.13;;;14.00;;
50906;SDS011;36882;27.680;85.304;2023-06-19T10:02:59;31.85;;;15.57;;
50906;SDS011;36882;27.680;85.304;2023-06-19T10:05:33;23.38;;;14.80;;
50906;SDS011;36882;27.680;85.304;2023-06-19T10:08:06;29.27;;;13.40;;
50906;SDS011;36882;27.680;85.304;2023-06-19T10:10:36;31.13;;;15.20;;
50906;SDS011;36882;27.680;85.304;2023-06-19T10:13:16;31.55;;;13.07;;
50906;SDS011;36882;27.680;85.304;2023-06-19T10:15:47;32.85;;;14.10;;
50906;SDS011;36882;27.680;85.304;2023-06-19T10:18:17;32.20;;;14.98;;
50906;SDS011;36882;27.680;85.304;2023-06-19T10:20:47;26.80;;;12.48;;
50906;SDS011;36882;27.680;85.304;2023-06-19T10:23:18;27.98;;;15.07;;
50906;SDS011;36882;27.680;85.304;2023-06-19T10:28:29;40.33;;;15.98;;
50906;SDS011;36882;27.680;85.304;2023-06-19T10:31:03;33.78;;;15.60;;
50906;SDS011;36882;27.680;85.304;2023-06-19T10:33:34;30.60;;;14.73;;
50906;SDS011;36882;27.680;85.304;2023-06-19T10:36:20;25.83;;;14.52;;
50906;SDS011;36882;27.680;85.304;2023-06-19T10:38:51;24.55;;;13.70;;
50906;SDS011;36882;27.680;85.304;2023-06-19T10:41:23;31.45;;;15.57;;
50906;SDS011;36882;27.680;85.304;2023-06-19T10:44:02;33.13;;;16.25;;
50906;SDS011;36882;27.680;85.304;2023-06-19T10:46:33;26.52;;;14.77;;
50906;SDS011;36882;27.680;85.304;2023-06-19T10:49:07;33.83;;;15.45;;
50906;SDS011;36882;27.680;85.304;2023-06-19T10:51:40;35.95;;;15.75;;
50906;SDS011;36882;27.680;85.304;2023-06-19T10:54:13;32.35;;;14.07;;
50906;SDS011;36882;27.680;85.304;2023-06-19T10:56:42;29.50;;;14.02;;
50906;SDS011;36882;27.680;85.304;2023-06-19T10:59:12;29.80;;;13.27;;
50906;SDS011;36882;27.680;85.304;2023-06-19T11:01:47;32.30;;;16.50;;
50906;SDS011;36882;27.680;85.304;2023-06-19T11:04:20;24.83;;;15.02;;
50906;SDS011;36882;27.680;85.304;2023-06-19T11:06:53;33.17;;;14.98;;
50906;SDS011;36882;27.680;85.304;2023-06-19T11:09:22;34.40;;;16.38;;
50906;SDS011;36882;27.680;85.304;2023-06-19T11:11:54;59.88;;;16.92;;
50906;SDS011;36882;27.680;85.304;2023-06-19T11:14:28;27.80;;;15.13;;
50906;SDS011;36882;27.680;85.304;2023-06-19T11:16:59;30.23;;;14.95;;
50906;SDS011;36882;27.680;85.304;2023-06-19T11:19:30;31.17;;;15.70;;
50906;SDS011;36882;27.680;85.304;2023-06-19T11:22:01;31.45;;;16.58;;
50906;SDS011;36882;27.680;85.304;2023-06-19T11:24:31;31.83;;;15.00;;
50906;SDS011;36882;27.680;85.304;2023-06-19T11:27:01;33.83;;;17.00;;
50906;SDS011;36882;27.680;85.304;2023-06-19T11:29:31;35.53;;;17.13;;
50906;SDS011;36882;27.680;85.304;2023-06-19T11:32:06;38.47;;;17.77;;
50906;SDS011;36882;27.680;85.304;2023-06-19T11:34:36;31.92;;;15.90;;
50906;SDS011;36882;27.680;85.304;2023-06-19T11:37:13;43.85;;;17.33;;
50906;SDS011;36882;27.680;85.304;2023-06-19T11:39:44;31.98;;;17.38;;
50906;SDS011;36882;27.680;85.304;2023-06-19T11:42:14;33.97;;;16.25;;
50906;SDS011;36882;27.680;85.304;2023-06-19T11:44:54;31.45;;;14.88;;
50906;SDS011;36882;27.680;85.304;2023-06-19T11:47:24;42.25;;;18.40;;
50906;SDS011;36882;27.680;85.304;2023-06-19T11:49:55;39.38;;;18.10;;
50906;SDS011;36882;27.680;85.304;2023-06-19T11:52:24;39.97;;;19.00;;
50906;SDS011;36882;27.680;85.304;2023-06-19T11:54:54;45.65;;;19.17;;
50906;SDS011;36882;27.680;85.304;2023-06-19T11:57:24;31.63;;;17.15;;
50906;SDS011;36882;27.680;85.304;2023-06-19T11:59:53;40.45;;;18.52;;
50906;SDS011;36882;27.680;85.304;2023-06-19T12:02:23;33.33;;;18.02;;
50906;SDS011;36882;27.680;85.304;2023-06-19T12:04:53;41.10;;;18.80;;
50906;SDS011;36882;27.680;85.304;2023-06-19T12:07:23;35.90;;;18.08;;
50906;SDS011;36882;27.680;85.304;2023-06-19T12:09:53;38.42;;;18.27;;
50906;SDS011;36882;27.680;85.304;2023-06-19T12:12:23;36.15;;;16.80;;
50906;SDS011;36882;27.680;85.304;2023-06-19T12:14:54;31.73;;;17.83;;
50906;SDS011;36882;27.680;85.304;2023-06-19T12:17:24;29.88;;;16.20;;
50906;SDS011;36882;27.680;85.304;2023-06-19T12:19:54;38.08;;;17.05;;
50906;SDS011;36882;27.680;85.304;2023-06-19T12:22:24;33.45;;;17.30;;
50906;SDS011;36882;27.680;85.304;2023-06-19T12:27:22;33.75;;;18.58;;
50906;SDS011;36882;27.680;85.304;2023-06-19T12:29:52;40.92;;;18.35;;
50906;SDS011;36882;27.680;85.304;2023-06-19T12:32:22;48.80;;;21.27;;
50906;SDS011;36882;27.680;85.304;2023-06-19T12:34:52;54.22;;;23.23;;
50906;SDS011;36882;27.680;85.304;2023-06-19T12:37:22;45.83;;;21.58;;
50906;SDS011;36882;27.680;85.304;2023-06-19T12:39:52;49.38;;;21.42;;
50906;SDS011;36882;27.680;85.304;2023-06-19T12:44:51;41.63;;;18.98;;
50906;SDS011;36882;27.680;85.304;2023-06-19T12:49:50;40.38;;;19.42;;
50906;SDS011;36882;27.680;85.304;2023-06-19T12:52:19;45.22;;;22.05;;
50906;SDS011;36882;27.680;85.304;2023-06-19T12:57:18;35.22;;;18.60;;
50906;SDS011;36882;27.680;85.304;2023-06-19T12:59:48;48.85;;;20.13;;
50906;SDS011;36882;27.680;85.304;2023-06-19T13:02:18;32.92;;;19.73;;
50906;SDS011;36882;27.680;85.304;2023-06-19T13:04:48;36.88;;;18.55;;
50906;SDS011;36882;27.680;85.304;2023-06-19T13:07:18;36.33;;;18.08;;
50906;SDS011;36882;27.680;85.304;2023-06-19T13:09:47;49.00;;;20.75;;
50906;SDS011;36882;27.680;85.304;2023-06-19T13:14:46;36.55;;;18.60;;
50906;SDS011;36882;27.680;85.304;2023-06-19T13:17:16;46.63;;;20.20;;
50906;SDS011;36882;27.680;85.304;2023-06-19T13:22:15;41.60;;;20.75;;
50906;SDS011;36882;27.680;85.304;2023-06-19T13:24:46;34.85;;;19.60;;
50906;SDS011;36882;27.680;85.304;2023-06-19T13:27:16;45.47;;;20.85;;
50906;SDS011;36882;27.680;85.304;2023-06-19T13:29:46;44.20;;;20.65;;
50906;SDS011;36882;27.680;85.304;2023-06-19T13:32:16;44.50;;;21.85;;
50906;SDS011;36882;27.680;85.304;2023-06-19T13:34:45;51.05;;;22.15;;
50906;SDS011;36882;27.680;85.304;2023-06-19T13:37:15;46.58;;;22.63;;
50906;SDS011;36882;27.680;85.304;2023-06-19T13:42:14;35.55;;;21.75;;
50906;SDS011;36882;27.680;85.304;2023-06-19T13:47:15;43.92;;;20.42;;
50906;SDS011;36882;27.680;85.304;2023-06-19T13:49:45;50.42;;;23.73;;
50906;SDS011;36882;27.680;85.304;2023-06-19T13:54:44;41.05;;;21.13;;
50906;SDS011;36882;27.680;85.304;2023-06-19T13:59:43;40.33;;;23.05;;
50906;SDS011;36882;27.680;85.304;2023-06-19T14:02:12;34.58;;;22.83;;
50906;SDS011;36882;27.680;85.304;2023-06-19T14:04:43;46.45;;;25.27;;
50906;SDS011;36882;27.680;85.304;2023-06-19T14:09:41;45.65;;;24.25;;
50906;SDS011;36882;27.680;85.304;2023-06-19T14:14:40;44.85;;;8.80;;
50906;SDS011;36882;27.680;85.304;2023-06-19T14:17:10;42.55;;;8.20;;
50906;SDS011;36882;27.680;85.304;2023-06-19T14:19:40;16.55;;;4.65;;
50906;SDS011;36882;27.680;85.304;2023-06-19T14:22:09;15.13;;;5.00;;
50906;SDS011;36882;27.680;85.304;2023-06-19T14:24:39;15.60;;;4.80;;
50906;SDS011;36882;27.680;85.304;2023-06-19T14:29:38;26.47;;;5.80;;
50906;SDS011;36882;27.680;85.304;2023-06-19T14:32:08;19.10;;;6.47;;
50906;SDS011;36882;27.680;85.304;2023-06-19T14:34:38;35.92;;;6.40;;
50906;SDS011;36882;27.680;85.304;2023-06-19T14:37:07;19.48;;;4.45;;
50906;SDS011;36882;27.680;85.304;2023-06-19T14:39:38;9.27;;;4.72;;
50906;SDS011;36882;27.680;85.304;2023-06-19T14:42:08;9.75;;;4.95;;
50906;SDS011;36882;27.680;85.304;2023-06-19T14:44:38;16.08;;;5.60;;
50906;SDS011;36882;27.680;85.304;2023-06-19T14:47:08;10.25;;;5.40;;
50906;SDS011;36882;27.680;85.304;2023-06-19T14:49:38;10.63;;;5.90;;
50906;SDS011;36882;27.680;85.304;2023-06-19T14:52:08;10.90;;;5.75;;
50906;SDS011;36882;27.680;85.304;2023-06-19T14:54:38;10.07;;;5.60;;
50906;SDS011;36882;27.680;85.304;2023-06-19T14:57:07;9.40;;;6.13;;
50906;SDS011;36882;27.680;85.304;2023-06-19T14:59:37;7.97;;;5.03;;
50906;SDS011;36882;27.680;85.304;2023-06-19T15:02:07;9.00;;;5.35;;
50906;SDS011;36882;27.680;85.304;2023-06-19T15:04:39;17.17;;;6.95;;
50906;SDS011;36882;27.680;85.304;2023-06-19T15:07:26;17.88;;;7.38;;
50906;SDS011;36882;27.680;85.304;2023-06-19T15:09:56;18.05;;;9.00;;
50906;SDS011;36882;27.680;85.304;2023-06-19T15:12:26;14.07;;;7.38;;
50906;SDS011;36882;27.680;85.304;2023-06-19T15:14:56;23.70;;;10.50;;
50906;SDS011;36882;27.680;85.304;2023-06-19T15:17:26;25.00;;;8.23;;
50906;SDS011;36882;27.680;85.304;2023-06-19T15:19:56;22.30;;;8.23;;
50906;SDS011;36882;27.680;85.304;2023-06-19T15:24:55;23.33;;;9.80;;
50906;SDS011;36882;27.680;85.304;2023-06-19T15:27:25;23.08;;;10.32;;
50906;SDS011;36882;27.680;85.304;2023-06-19T15:29:55;22.88;;;9.43;;
50906;SDS011;36882;27.680;85.304;2023-06-19T15:32:24;13.63;;;7.78;;
50906;SDS011;36882;27.680;85.304;2023-06-19T15:34:54;17.40;;;9.02;;
50906;SDS011;36882;27.680;85.304;2023-06-19T15:37:24;11.18;;;6.32;;
50906;SDS011;36882;27.680;85.304;2023-06-19T15:39:54;12.88;;;6.97;;
50906;SDS011;36882;27.680;85.304;2023-06-19T15:42:24;11.50;;;7.88;;
50906;SDS011;36882;27.680;85.304;2023-06-19T15:44:57;10.65;;;4.40;;
50906;SDS011;36882;27.680;85.304;2023-06-19T15:47:27;5.20;;;4.10;;
50906;SDS011;36882;27.680;85.304;2023-06-19T15:49:56;11.13;;;6.40;;
50906;SDS011;36882;27.680;85.304;2023-06-19T15:52:26;4.82;;;3.90;;
50906;SDS011;36882;27.680;85.304;2023-06-19T15:54:56;9.23;;;5.05;;
50906;SDS011;36882;27.680;85.304;2023-06-19T15:57:26;12.77;;;6.75;;
50906;SDS011;36882;27.680;85.304;2023-06-19T15:59:56;7.38;;;3.97;;
50906;SDS011;36882;27.680;85.304;2023-06-19T16:02:26;7.05;;;3.83;;
50906;SDS011;36882;27.680;85.304;2023-06-19T16:05:01;5.40;;;4.28;;
50906;SDS011;36882;27.680;85.304;2023-06-19T16:07:31;9.65;;;4.40;;
50906;SDS011;36882;27.680;85.304;2023-06-19T16:10:01;8.52;;;3.83;;
50906;SDS011;36882;27.680;85.304;2023-06-19T16:12:31;7.22;;;2.83;;
50906;SDS011;36882;27.680;85.304;2023-06-19T16:15:01;4.22;;;2.67;;
50906;SDS011;36882;27.680;85.304;2023-06-19T16:17:31;7.32;;;4.05;;
50906;SDS011;36882;27.680;85.304;2023-06-19T16:20:00;13.05;;;6.30;;
50906;SDS011;36882;27.680;85.304;2023-06-19T16:22:30;19.75;;;6.35;;
50906;SDS011;36882;27.680;85.304;2023-06-19T16:25:01;23.13;;;11.00;;
50906;SDS011;36882;27.680;85.304;2023-06-19T16:27:31;16.98;;;9.85;;
50906;SDS011;36882;27.680;85.304;2023-06-19T16:30:01;13.65;;;8.57;;
50906;SDS011;36882;27.680;85.304;2023-06-19T16:32:31;14.32;;;9.07;;
50906;SDS011;36882;27.680;85.304;2023-06-19T16:35:00;12.43;;;7.55;;
50906;SDS011;36882;27.680;85.304;2023-06-19T16:37:30;13.13;;;7.40;;
50906;SDS011;36882;27.680;85.304;2023-06-19T16:40:00;13.23;;;5.78;;
50906;SDS011;36882;27.680;85.304;2023-06-19T16:42:33;10.82;;;6.38;;
50906;SDS011;36882;27.680;85.304;2023-06-19T16:45:02;13.05;;;8.48;;
50906;SDS011;36882;27.680;85.304;2023-06-19T16:47:32;18.08;;;8.18;;
50906;SDS011;36882;27.680;85.304;2023-06-19T16:50:02;14.90;;;8.45;;
50906;SDS011;36882;27.680;85.304;2023-06-19T16:52:32;11.77;;;6.80;;
50906;SDS011;36882;27.680;85.304;2023-06-19T16:55:01;10.45;;;7.57;;
50906;SDS011;36882;27.680;85.304;2023-06-19T16:57:32;13.60;;;7.68;;
50906;SDS011;36882;27.680;85.304;2023-06-19T17:00:02;14.23;;;7.47;;
50906;SDS011;36882;27.680;85.304;2023-06-19T17:02:32;9.98;;;7.07;;
50906;SDS011;36882;27.680;85.304;2023-06-19T17:05:02;10.45;;;7.00;;
50906;SDS011;36882;27.680;85.304;2023-06-19T17:07:32;8.93;;;5.90;;
50906;SDS011;36882;27.680;85.304;2023-06-19T17:10:02;9.35;;;6.13;;
50906;SDS011;36882;27.680;85.304;2023-06-19T17:12:32;11.68;;;6.05;;
50906;SDS011;36882;27.680;85.304;2023-06-19T17:15:02;11.30;;;5.43;;
50906;SDS011;36882;27.680;85.304;2023-06-19T17:17:32;9.90;;;6.45;;
50906;SDS011;36882;27.680;85.304;2023-06-19T17:22:33;8.02;;;6.57;;
50906;SDS011;36882;27.680;85.304;2023-06-19T17:25:02;9.90;;;6.45;;
50906;SDS011;36882;27.680;85.304;2023-06-19T17:27:32;10.15;;;7.53;;
50906;SDS011;36882;27.680;85.304;2023-06-19T17:30:02;13.73;;;9.23;;
50906;SDS011;36882;27.680;85.304;2023-06-19T17:32:32;12.75;;;7.32;;
50906;SDS011;36882;27.680;85.304;2023-06-19T17:35:02;14.60;;;8.63;;
50906;SDS011;36882;27.680;85.304;2023-06-19T17:37:32;13.77;;;8.77;;
50906;SDS011;36882;27.680;85.304;2023-06-19T17:40:04;13.27;;;9.40;;
50906;SDS011;36882;27.680;85.304;2023-06-19T17:45:03;16.83;;;11.68;;
50906;SDS011;36882;27.680;85.304;2023-06-19T17:50:02;18.50;;;11.13;;
50906;SDS011;36882;27.680;85.304;2023-06-19T17:52:32;13.20;;;9.38;;
50906;SDS011;36882;27.680;85.304;2023-06-19T17:55:02;17.70;;;10.32;;
50906;SDS011;36882;27.680;85.304;2023-06-19T17:57:34;14.15;;;10.20;;
50906;SDS011;36882;27.680;85.304;2023-06-19T18:00:04;14.52;;;9.35;;
50906;SDS011;36882;27.680;85.304;2023-06-19T18:02:34;11.43;;;8.95;;
50906;SDS011;36882;27.680;85.304;2023-06-19T18:05:04;15.75;;;9.52;;
50906;SDS011;36882;27.680;85.304;2023-06-19T18:07:34;14.52;;;9.90;;
50906;SDS011;36882;27.680;85.304;2023-06-19T18:10:04;16.55;;;10.52;;
50906;SDS011;36882;27.680;85.304;2023-06-19T18:12:33;17.80;;;12.05;;
50906;SDS011;36882;27.680;85.304;2023-06-19T18:15:04;15.35;;;11.70;;
50906;SDS011;36882;27.680;85.304;2023-06-19T18:17:33;18.83;;;11.25;;
50906;SDS011;36882;27.680;85.304;2023-06-19T18:20:03;26.60;;;12.70;;
50906;SDS011;36882;27.680;85.304;2023-06-19T18:22:33;22.63;;;13.82;;
50906;SDS011;36882;27.680;85.304;2023-06-19T18:25:04;20.33;;;12.13;;